Reynolds, Illinois
Current Conditions -  °F | °C
As of 1:52 PM on Tuesday 21 Oct 2014 (Local Time) from KMLI Reporting Station
Clear Clear  
Wind Chill: 58°   Ceiling: Unl
Heat Index: 58°   Visibility: 10mi
Dew Point: 39°   Wind: 8mph
Humidity: 49%   Direction: 10°N
Pressure: 30.17"   Gusts: NA
Location:  41.33°N, 90.67°W
Report Text: KMLI 211852Z 01007KT 10SM CLR 14/04 A3017 RMK AO2 SLP218 T01440039
Loading
Personal Weather Stations






























Interactive Weather Map
Tropical Storm Tracking
New forecast layout! Learn more

10-Day Weather Forecast

Advertisements
Track Severe Weather on mobile